createdAt,value
2019-06-01T00:01:05.976Z,17.00
2019-06-01T00:03:33.672Z,16.90
2019-06-01T00:06:02.721Z,16.80
2019-06-01T00:08:30.410Z,16.80
2019-06-01T00:10:58.101Z,16.70
2019-06-01T00:13:25.831Z,16.60
2019-06-01T00:15:53.547Z,16.60
2019-06-01T00:18:21.275Z,16.60
2019-06-01T00:20:48.987Z,16.50
2019-06-01T00:23:16.678Z,16.40
2019-06-01T00:25:44.598Z,16.30
2019-06-01T00:28:12.518Z,16.20
2019-06-01T00:30:40.232Z,16.10
2019-06-01T00:33:07.938Z,16.00
2019-06-01T00:35:35.663Z,16.00
2019-06-01T00:38:03.511Z,16.00
2019-06-01T00:40:31.192Z,15.90
2019-06-01T00:42:58.928Z,15.80
2019-06-01T00:45:26.633Z,15.80
2019-06-01T00:47:54.326Z,15.70
2019-06-01T00:50:22.025Z,15.70
2019-06-01T00:52:49.777Z,15.50
2019-06-01T00:55:17.503Z,15.40
2019-06-01T00:57:45.707Z,15.30
2019-06-01T01:00:13.955Z,15.20
2019-06-01T01:02:41.751Z,15.10
2019-06-01T01:05:12.711Z,15.10
2019-06-01T01:07:40.430Z,15.10
2019-06-01T01:10:08.801Z,15.00
2019-06-01T01:12:55.981Z,15.00
2019-06-01T01:15:23.655Z,14.90
2019-06-01T01:17:51.985Z,14.90
2019-06-01T01:20:19.800Z,14.90
2019-06-01T01:22:48.468Z,14.90
2019-06-01T01:25:16.632Z,14.80
2019-06-01T01:27:44.427Z,14.70
2019-06-01T01:30:12.403Z,14.70
2019-06-01T01:32:40.132Z,14.60
2019-06-01T01:35:08.596Z,14.60
2019-06-01T01:37:36.388Z,14.60
2019-06-01T01:40:04.164Z,14.50
2019-06-01T01:42:31.912Z,14.50
2019-06-01T01:44:59.617Z,14.50
2019-06-01T01:47:27.304Z,14.50
2019-06-01T01:49:56.089Z,14.40
2019-06-01T01:52:23.834Z,14.30
2019-06-01T01:54:52.717Z,14.30
2019-06-01T01:57:20.636Z,14.30
2019-06-01T01:59:48.343Z,14.20
2019-06-01T02:02:16.070Z,14.20
2019-06-01T02:04:43.787Z,14.20
2019-06-01T02:07:11.497Z,14.10
2019-06-01T02:09:39.194Z,14.10
2019-06-01T02:12:06.893Z,14.10
2019-06-01T02:14:34.600Z,14.00
2019-06-01T02:17:02.626Z,14.10
2019-06-01T02:19:30.480Z,14.10
2019-06-01T02:21:58.505Z,14.10
2019-06-01T02:24:26.288Z,14.10
2019-06-01T02:26:55.112Z,14.10
2019-06-01T02:29:23.083Z,14.00
2019-06-01T02:31:50.816Z,13.90
2019-06-01T02:34:18.539Z,13.90
2019-06-01T02:36:46.196Z,13.80
2019-06-01T02:39:15.029Z,13.80
2019-06-01T02:41:43.770Z,13.80
2019-06-01T02:44:11.447Z,13.80
2019-06-01T02:46:39.860Z,13.70
2019-06-01T02:49:07.558Z,13.70
2019-06-01T02:51:35.255Z,13.70
2019-06-01T02:54:04.121Z,13.70
2019-06-01T02:56:31.871Z,13.60
2019-06-01T02:59:00.404Z,13.50
2019-06-01T03:01:36.644Z,13.50
2019-06-01T03:04:09.079Z,13.40
2019-06-01T03:06:40.196Z,13.40
2019-06-01T03:09:09.223Z,13.40
2019-06-01T03:11:39.333Z,13.30
2019-06-01T03:14:11.632Z,13.30
2019-06-01T03:16:40.639Z,13.20
2019-06-01T03:19:08.589Z,13.10
2019-06-01T03:21:36.488Z,13.00
2019-06-01T03:24:08.171Z,13.00
2019-06-01T03:26:42.280Z,13.00
2019-06-01T03:29:14.065Z,13.00
2019-06-01T03:31:41.782Z,13.10
2019-06-01T03:34:20.239Z,13.10
2019-06-01T03:36:48.415Z,13.00
2019-06-01T03:39:16.314Z,13.00
2019-06-01T03:41:44.133Z,13.00
2019-06-01T03:44:12.984Z,13.00
2019-06-01T03:46:40.951Z,13.00
2019-06-01T03:49:09.734Z,12.90
2019-06-01T03:51:37.662Z,12.80
2019-06-01T03:54:06.853Z,12.80
2019-06-01T03:56:35.140Z,12.80
2019-06-01T03:59:03.129Z,12.80
2019-06-01T04:01:30.823Z,12.80
2019-06-01T04:03:58.519Z,12.90
2019-06-01T04:06:26.247Z,12.90
2019-06-01T04:08:53.940Z,12.90
2019-06-01T04:11:21.663Z,12.80
2019-06-01T04:13:52.244Z,12.80
2019-06-01T04:16:19.939Z,12.80
2019-06-01T04:18:47.681Z,12.80
2019-06-01T04:21:15.360Z,12.80
2019-06-01T04:23:52.411Z,12.80
2019-06-01T04:26:20.139Z,12.80
2019-06-01T04:28:47.815Z,13.10
2019-06-01T04:31:15.641Z,13.40
2019-06-01T04:33:43.329Z,13.80
2019-06-01T04:36:11.088Z,14.20
2019-06-01T04:38:38.816Z,14.50
2019-06-01T04:41:07.607Z,14.90
2019-06-01T04:43:35.542Z,15.40
2019-06-01T04:46:04.001Z,15.50
2019-06-01T04:48:31.968Z,15.90
2019-06-01T04:51:15.298Z,16.10
2019-06-01T04:53:42.944Z,16.30
2019-06-01T04:56:22.083Z,16.70
2019-06-01T04:58:49.760Z,17.00
2019-06-01T05:01:17.975Z,17.40
2019-06-01T05:03:45.676Z,17.70
2019-06-01T05:06:13.456Z,18.20
2019-06-01T05:08:41.158Z,18.40
2019-06-01T05:11:10.203Z,18.80
2019-06-01T05:13:38.436Z,19.10
2019-06-01T05:16:06.128Z,19.40
2019-06-01T05:18:33.840Z,19.50
2019-06-01T05:21:01.545Z,19.80
2019-06-01T05:23:29.257Z,20.00
2019-06-01T05:25:56.957Z,20.40
2019-06-01T05:28:24.654Z,20.50
2019-06-01T05:30:52.388Z,20.70
2019-06-01T05:33:36.563Z,20.90
2019-06-01T05:35:52.020Z,21.10
2019-06-01T05:38:19.747Z,21.20
2019-06-01T05:40:47.435Z,21.40
2019-06-01T05:43:18.049Z,21.70
2019-06-01T05:45:44.748Z,22.00
2019-06-01T05:48:16.384Z,22.00
2019-06-01T05:50:41.984Z,22.00
2019-06-01T05:53:10.436Z,22.10
2019-06-01T05:55:38.443Z,22.60
2019-06-01T05:58:06.134Z,22.90
2019-06-01T06:00:39.730Z,23.10
2019-06-01T06:03:07.604Z,23.40
2019-06-01T06:05:35.268Z,23.60
2019-06-01T06:08:02.980Z,23.80
2019-06-01T06:10:30.698Z,24.00
2019-06-01T06:12:58.412Z,23.90
2019-06-01T06:15:26.148Z,24.10
2019-06-01T06:17:53.994Z,24.50
2019-06-01T06:20:22.180Z,24.50
2019-06-01T06:22:50.296Z,24.80
2019-06-01T06:25:17.977Z,24.90
2019-06-01T06:27:45.675Z,24.70
2019-06-01T06:30:13.501Z,24.80
2019-06-01T06:32:41.203Z,24.90
2019-06-01T06:35:09.015Z,25.40
2019-06-01T06:37:36.695Z,25.90
2019-06-01T06:40:05.087Z,25.80
2019-06-01T06:42:32.936Z,25.80
2019-06-01T06:45:03.348Z,26.00
2019-06-01T06:47:30.136Z,26.30
2019-06-01T06:49:57.843Z,26.80
2019-06-01T06:52:25.781Z,27.10
2019-06-01T06:54:53.625Z,27.00
2019-06-01T06:57:22.120Z,27.40
2019-06-01T06:59:50.230Z,27.30
2019-06-01T07:02:18.763Z,27.40
2019-06-01T07:04:46.564Z,27.40
2019-06-01T07:07:14.255Z,27.30
2019-06-01T07:09:42.132Z,26.60
2019-06-01T07:12:09.963Z,26.40
2019-06-01T07:14:37.713Z,26.50
2019-06-01T07:17:05.464Z,27.40
2019-06-01T07:19:33.295Z,28.00
2019-06-01T07:22:01.047Z,28.60
2019-06-01T07:24:29.299Z,28.70
2019-06-01T07:26:57.068Z,29.20
2019-06-01T07:29:24.847Z,29.40
2019-06-01T07:31:52.639Z,29.50
2019-06-01T07:34:30.802Z,30.20
2019-06-01T07:36:49.949Z,30.10
2019-06-01T07:39:17.741Z,30.20
2019-06-01T07:41:45.515Z,30.00
2019-06-01T07:44:13.215Z,30.40
2019-06-01T07:46:40.966Z,30.50
2019-06-01T07:49:08.770Z,30.70
2019-06-01T07:51:36.517Z,30.80
2019-06-01T07:54:04.273Z,31.30
2019-06-01T07:56:35.151Z,31.80
2019-06-01T07:59:02.827Z,31.80
2019-06-01T08:01:33.954Z,31.70
2019-06-01T08:04:01.744Z,31.60
2019-06-01T08:06:31.055Z,31.50
2019-06-01T08:09:04.212Z,31.60
2019-06-01T08:11:34.902Z,32.00
2019-06-01T08:14:01.755Z,31.80
2019-06-01T08:16:29.981Z,32.10
2019-06-01T08:18:58.511Z,31.90
2019-06-01T08:21:26.281Z,31.90
2019-06-01T08:23:54.138Z,31.90
2019-06-01T08:26:26.374Z,32.10
2019-06-01T08:28:59.150Z,32.60
2019-06-01T08:31:28.341Z,32.70
2019-06-01T08:33:58.519Z,33.00
2019-06-01T08:36:29.394Z,33.40
2019-06-01T08:38:57.480Z,32.60
2019-06-01T08:41:25.578Z,32.80
2019-06-01T08:43:54.313Z,32.90
2019-06-01T08:46:25.593Z,32.90
2019-06-01T08:48:54.468Z,33.20
2019-06-01T08:51:24.030Z,33.10
2019-06-01T08:53:56.222Z,33.40
2019-06-01T08:56:34.328Z,33.70
2019-06-01T08:59:09.959Z,34.20
2019-06-01T09:01:40.526Z,34.00
2019-06-01T09:04:10.950Z,33.40
2019-06-01T09:06:38.657Z,33.40
2019-06-01T09:09:07.052Z,34.20
2019-06-01T09:11:36.616Z,34.90
2019-06-01T09:14:13.256Z,35.10
2019-06-01T09:16:40.984Z,34.50
2019-06-01T09:19:12.466Z,33.80
2019-06-01T09:21:40.749Z,33.40
2019-06-01T09:24:08.968Z,32.80
2019-06-01T09:26:40.531Z,32.10
2019-06-01T09:29:13.139Z,31.80
2019-06-01T09:31:43.920Z,32.10
2019-06-01T09:34:38.537Z,32.70
2019-06-01T09:38:02.702Z,32.00
2019-06-01T09:40:33.563Z,30.80
2019-06-01T09:43:03.322Z,30.90
2019-06-01T09:45:33.336Z,31.50
2019-06-01T09:48:13.039Z,31.10
2019-06-01T09:50:41.006Z,31.40
2019-06-01T09:53:09.182Z,31.60
2019-06-01T09:55:46.904Z,32.30
2019-06-01T09:58:16.821Z,32.40
2019-06-01T10:01:07.440Z,32.40
2019-06-01T10:03:36.497Z,33.10
2019-06-01T10:06:14.348Z,33.50
2019-06-01T10:08:43.674Z,33.80
2019-06-01T10:11:18.995Z,32.90
2019-06-01T10:13:49.125Z,32.50
2019-06-01T10:16:20.083Z,32.00
2019-06-01T10:18:49.201Z,31.10
2019-06-01T10:21:16.938Z,31.30
2019-06-01T10:23:49.325Z,31.40
2019-06-01T10:26:14.999Z,32.30
2019-06-01T10:28:49.194Z,32.70
2019-06-01T10:31:41.158Z,33.30
2019-06-01T10:34:06.925Z,33.40
2019-06-01T10:36:34.594Z,33.80
2019-06-01T10:39:04.192Z,33.60
2019-06-01T10:41:33.219Z,34.00
2019-06-01T10:44:01.433Z,33.70
2019-06-01T10:46:29.599Z,32.90
2019-06-01T10:49:10.338Z,31.90
2019-06-01T10:51:40.255Z,31.50
2019-06-01T10:54:11.848Z,31.60
2019-06-01T10:56:40.536Z,31.60
2019-06-01T10:59:08.514Z,31.60
2019-06-01T11:01:43.503Z,32.00
2019-06-01T11:04:14.020Z,31.50
2019-06-01T11:06:48.647Z,30.60
2019-06-01T11:09:16.472Z,30.40
2019-06-01T11:11:47.045Z,30.70
2019-06-01T11:14:25.369Z,31.60
2019-06-01T11:17:03.347Z,32.30
2019-06-01T11:19:33.189Z,32.40
2019-06-01T11:22:09.299Z,31.90
2019-06-01T11:24:41.748Z,31.70
2019-06-01T11:27:11.320Z,31.20
2019-06-01T11:29:51.220Z,31.10
2019-06-01T11:32:15.132Z,31.90
2019-06-01T11:34:44.417Z,33.00
2019-06-01T11:37:15.582Z,33.60
2019-06-01T11:39:42.901Z,33.60
2019-06-01T11:42:10.668Z,33.80
2019-06-01T11:44:38.679Z,34.00
2019-06-01T11:47:06.779Z,33.80
2019-06-01T11:49:34.723Z,33.60
2019-06-01T11:52:02.908Z,33.30
2019-06-01T11:54:33.212Z,32.50
2019-06-01T11:57:01.355Z,31.50
2019-06-01T11:59:29.093Z,31.40
2019-06-01T12:02:00.648Z,31.50
2019-06-01T12:04:28.357Z,31.50
2019-06-01T12:07:13.490Z,31.50
2019-06-01T12:09:26.488Z,31.80
2019-06-01T12:11:54.273Z,31.70
2019-06-01T12:14:23.203Z,32.30
2019-06-01T12:16:50.958Z,32.20
2019-06-01T12:19:18.670Z,31.80
2019-06-01T12:21:47.409Z,31.40
2019-06-01T12:24:15.372Z,30.80
2019-06-01T12:26:43.561Z,30.40
2019-06-01T12:29:11.360Z,30.40
2019-06-01T12:31:52.753Z,30.10
2019-06-01T12:34:32.408Z,30.10
2019-06-01T12:37:00.634Z,30.50
2019-06-01T12:39:28.359Z,30.70
2019-06-01T12:41:56.055Z,30.90
2019-06-01T12:44:23.761Z,30.60
2019-06-01T12:46:51.472Z,31.00
2019-06-01T12:49:19.187Z,30.80
2019-06-01T12:51:48.442Z,30.20
2019-06-01T12:54:17.055Z,30.50
2019-06-01T12:56:44.856Z,30.40
2019-06-01T12:59:12.532Z,30.40
2019-06-01T13:01:41.029Z,29.90
2019-06-01T13:04:08.916Z,30.00
2019-06-01T13:06:36.627Z,30.10
2019-06-01T13:09:06.818Z,30.50
2019-06-01T13:11:34.531Z,30.50
2019-06-01T13:14:04.375Z,30.60
2019-06-01T13:16:42.550Z,30.70
2019-06-01T13:19:07.169Z,30.70
2019-06-01T13:21:35.280Z,30.30
2019-06-01T13:24:03.559Z,30.00
2019-06-01T13:26:34.850Z,29.90
2019-06-01T13:29:03.120Z,29.80
2019-06-01T13:31:31.289Z,29.80
2019-06-01T13:33:59.630Z,29.80
2019-06-01T13:36:28.682Z,29.40
2019-06-01T13:38:56.703Z,29.30
2019-06-01T13:41:26.226Z,29.20
2019-06-01T13:43:54.288Z,29.00
2019-06-01T13:46:21.971Z,29.30
2019-06-01T13:48:50.026Z,29.10
2019-06-01T13:51:17.892Z,29.30
2019-06-01T13:53:46.323Z,29.50
2019-06-01T13:56:14.117Z,29.40
2019-06-01T13:58:41.838Z,29.50
2019-06-01T14:01:09.523Z,29.40
2019-06-01T14:03:37.257Z,29.10
2019-06-01T14:06:04.988Z,29.10
2019-06-01T14:08:32.661Z,29.00
2019-06-01T14:11:00.524Z,29.10
2019-06-01T14:13:28.224Z,29.20
2019-06-01T14:15:55.950Z,29.30
2019-06-01T14:18:23.640Z,29.20
2019-06-01T14:21:07.357Z,29.10
2019-06-01T14:23:35.080Z,29.00
2019-06-01T14:26:02.924Z,29.20
2019-06-01T14:28:31.096Z,29.20
2019-06-01T14:31:01.663Z,29.30
2019-06-01T14:33:29.839Z,29.30
2019-06-01T14:35:58.686Z,29.30
2019-06-01T14:38:26.458Z,29.30
2019-06-01T14:40:55.179Z,29.50
2019-06-01T14:43:23.560Z,29.30
2019-06-01T14:45:51.553Z,29.30
2019-06-01T14:48:19.690Z,29.30
2019-06-01T14:50:47.580Z,29.50
2019-06-01T14:53:15.223Z,29.50
2019-06-01T14:55:42.984Z,29.60
2019-06-01T14:58:10.759Z,29.60
2019-06-01T15:00:38.681Z,29.20
2019-06-01T15:03:12.767Z,29.20
2019-06-01T15:05:48.604Z,29.10
2019-06-01T15:08:21.024Z,29.20
2019-06-01T15:10:54.888Z,29.20
2019-06-01T15:13:27.556Z,29.00
2019-06-01T15:16:05.967Z,29.20
2019-06-01T15:18:42.854Z,29.20
2019-06-01T15:21:18.579Z,29.10
2019-06-01T15:24:16.210Z,29.10
2019-06-01T15:26:54.997Z,29.10
2019-06-01T15:29:40.808Z,29.30
2019-06-01T15:32:10.541Z,29.40
2019-06-01T15:34:54.458Z,29.40
2019-06-01T15:37:23.629Z,29.30
2019-06-01T15:39:52.271Z,29.30
2019-06-01T15:42:21.477Z,29.30
2019-06-01T15:44:51.026Z,29.00
2019-06-01T15:47:22.825Z,29.00
2019-06-01T15:49:53.598Z,29.10
2019-06-01T15:52:38.795Z,29.10
2019-06-01T15:55:07.041Z,29.10
2019-06-01T15:57:34.776Z,29.20
2019-06-01T16:00:03.082Z,29.20
2019-06-01T16:02:31.333Z,29.20
2019-06-01T16:04:59.303Z,29.20
2019-06-01T16:07:27.307Z,29.00
2019-06-01T16:10:14.625Z,29.10
2019-06-01T16:12:42.419Z,29.00
2019-06-01T16:15:10.347Z,29.00
2019-06-01T16:17:38.126Z,29.10
2019-06-01T16:20:08.828Z,29.20
2019-06-01T16:22:36.692Z,29.30
2019-06-01T16:25:04.859Z,29.40
2019-06-01T16:27:36.740Z,29.30
2019-06-01T16:30:08.048Z,29.30
2019-06-01T16:32:39.216Z,29.40
2019-06-01T16:35:07.548Z,29.20
2019-06-01T16:37:35.318Z,29.20
2019-06-01T16:40:08.067Z,29.20
2019-06-01T16:42:32.882Z,29.20
2019-06-01T16:45:01.671Z,29.20
2019-06-01T16:47:29.734Z,29.10
2019-06-01T16:50:03.892Z,29.10
2019-06-01T16:52:31.896Z,29.00
2019-06-01T16:55:12.721Z,29.00
2019-06-01T16:57:53.911Z,29.00
2019-06-01T17:00:27.605Z,28.90
2019-06-01T17:02:56.815Z,28.70
2019-06-01T17:05:24.663Z,28.70
2019-06-01T17:07:53.364Z,28.80
2019-06-01T17:10:26.169Z,28.70
2019-06-01T17:12:51.633Z,28.70
2019-06-01T17:15:27.295Z,28.70
2019-06-01T17:17:55.285Z,28.70
2019-06-01T17:20:57.760Z,28.70
2019-06-01T17:23:33.121Z,28.80
2019-06-01T17:26:06.595Z,28.80
2019-06-01T17:28:48.305Z,28.70
2019-06-01T17:31:24.931Z,28.70
2019-06-01T17:34:00.300Z,28.60
2019-06-01T17:36:32.027Z,28.60
2019-06-01T17:39:09.843Z,28.60
2019-06-01T17:42:00.292Z,28.60
2019-06-01T17:44:28.122Z,28.60
2019-06-01T17:46:56.588Z,28.60
2019-06-01T17:49:25.015Z,28.40
2019-06-01T17:51:53.151Z,28.40
2019-06-01T17:54:21.268Z,28.30
2019-06-01T17:56:49.374Z,28.30
2019-06-01T17:59:17.299Z,28.30
2019-06-01T18:01:45.377Z,28.30
2019-06-01T18:04:13.492Z,28.30
2019-06-01T18:06:41.458Z,28.20
2019-06-01T18:09:10.268Z,28.10
2019-06-01T18:11:38.547Z,28.10
2019-06-01T18:14:08.198Z,28.00
2019-06-01T18:16:36.210Z,28.00
2019-06-01T18:19:04.174Z,27.90
2019-06-01T18:21:33.505Z,27.90
2019-06-01T18:24:04.300Z,27.90
2019-06-01T18:26:31.391Z,27.80
2019-06-01T18:28:59.407Z,27.70
2019-06-01T18:31:27.680Z,27.60
2019-06-01T18:33:55.885Z,27.60
2019-06-01T18:36:29.515Z,27.50
2019-06-01T18:38:57.296Z,27.50
2019-06-01T18:41:26.160Z,27.50
2019-06-01T18:43:53.922Z,27.40
2019-06-01T18:46:21.576Z,27.30
2019-06-01T18:48:49.318Z,27.20
2019-06-01T18:51:17.105Z,27.10
2019-06-01T18:53:44.848Z,27.10
2019-06-01T18:56:12.559Z,27.00
2019-06-01T18:58:40.232Z,26.90
2019-06-01T19:01:08.732Z,26.90
2019-06-01T19:03:36.419Z,26.80
2019-06-01T19:06:05.141Z,26.70
2019-06-01T19:08:32.939Z,26.60
2019-06-01T19:11:00.628Z,26.60
2019-06-01T19:13:28.382Z,26.60
2019-06-01T19:15:56.139Z,26.50
2019-06-01T19:18:23.959Z,26.40
2019-06-01T19:20:51.675Z,26.30
2019-06-01T19:23:21.885Z,26.30
2019-06-01T19:25:49.103Z,26.20
2019-06-01T19:28:17.490Z,26.10
2019-06-01T19:30:45.899Z,26.00
2019-06-01T19:33:16.855Z,26.00
2019-06-01T19:35:43.578Z,25.90
2019-06-01T19:38:11.549Z,25.80
2019-06-01T19:40:40.315Z,25.70
2019-06-01T19:43:09.390Z,25.60
2019-06-01T19:45:37.522Z,25.50
2019-06-01T19:48:08.033Z,25.50
2019-06-01T19:50:36.036Z,25.30
2019-06-01T19:53:04.762Z,25.30
2019-06-01T19:55:32.527Z,25.20
2019-06-01T19:58:00.229Z,25.10
2019-06-01T20:00:27.917Z,25.10
2019-06-01T20:02:55.772Z,25.00
2019-06-01T20:05:23.977Z,24.90
2019-06-01T20:07:52.855Z,24.90
2019-06-01T20:10:22.639Z,24.80
2019-06-01T20:12:50.530Z,24.70
2019-06-01T20:15:19.521Z,24.70
2019-06-01T20:17:47.951Z,24.70
2019-06-01T20:20:23.124Z,24.60
2019-06-01T20:22:53.980Z,24.60
2019-06-01T20:25:21.988Z,24.50
2019-06-01T20:27:51.256Z,24.50
2019-06-01T20:30:19.922Z,24.40
2019-06-01T20:32:48.212Z,24.40
2019-06-01T20:35:16.066Z,24.30
2019-06-01T20:37:44.099Z,24.30
2019-06-01T20:40:12.522Z,24.20
2019-06-01T20:42:40.426Z,24.20
2019-06-01T20:45:08.972Z,24.10
2019-06-01T20:47:36.792Z,24.00
2019-06-01T20:50:06.924Z,24.10
2019-06-01T20:52:34.740Z,24.00
2019-06-01T20:55:03.996Z,24.00
2019-06-01T20:57:31.733Z,24.00
2019-06-01T20:59:59.474Z,23.90
2019-06-01T21:02:27.266Z,23.90
2019-06-01T21:04:55.012Z,23.90
2019-06-01T21:07:23.945Z,23.70
2019-06-01T21:09:51.950Z,23.70
2019-06-01T21:12:38.382Z,23.60
2019-06-01T21:14:50.632Z,23.60
2019-06-01T21:17:18.533Z,23.60
2019-06-01T21:19:46.325Z,23.60
2019-06-01T21:22:14.595Z,23.50
2019-06-01T21:24:42.337Z,23.50
2019-06-01T21:27:10.530Z,23.40
2019-06-01T21:29:38.231Z,23.40
2019-06-01T21:32:05.962Z,23.40
2019-06-01T21:34:33.866Z,23.40
2019-06-01T21:37:01.604Z,23.20
2019-06-01T21:39:29.624Z,23.10
2019-06-01T21:41:57.374Z,23.10
2019-06-01T21:44:25.705Z,22.90
2019-06-01T21:46:53.682Z,22.90
2019-06-01T21:49:22.156Z,22.90
2019-06-01T21:51:52.950Z,22.80
2019-06-01T21:54:20.136Z,22.70
2019-06-01T21:56:48.284Z,22.70
2019-06-01T21:59:16.447Z,22.60
2019-06-01T22:01:44.600Z,22.60
2019-06-01T22:04:12.306Z,22.50
2019-06-01T22:06:40.154Z,22.50
2019-06-01T22:09:07.941Z,22.40
2019-06-01T22:11:35.918Z,22.50
2019-06-01T22:14:05.658Z,22.50
2019-06-01T22:16:33.396Z,22.50
2019-06-01T22:19:01.123Z,22.50
2019-06-01T22:21:28.832Z,22.50
2019-06-01T22:23:59.623Z,22.30
2019-06-01T22:26:28.370Z,22.20
2019-06-01T22:28:56.479Z,22.20
2019-06-01T22:31:24.579Z,22.00
2019-06-01T22:33:52.399Z,21.90
2019-06-01T22:36:20.938Z,21.70
2019-06-01T22:38:50.599Z,21.60
2019-06-01T22:41:18.297Z,21.50
2019-06-01T22:43:47.062Z,21.40
2019-06-01T22:46:15.103Z,21.20
2019-06-01T22:48:42.834Z,21.10
2019-06-01T22:51:10.523Z,20.90
2019-06-01T22:53:38.396Z,20.70
2019-06-01T22:56:06.099Z,20.70
2019-06-01T22:58:33.792Z,20.60
2019-06-01T23:01:01.624Z,20.60
2019-06-01T23:03:30.165Z,20.60
2019-06-01T23:05:57.997Z,20.50
2019-06-01T23:08:25.758Z,20.50
2019-06-01T23:10:53.536Z,20.50
2019-06-01T23:13:21.285Z,20.50
2019-06-01T23:15:49.136Z,20.40
2019-06-01T23:18:16.845Z,20.30
2019-06-01T23:20:45.224Z,20.20
2019-06-01T23:23:12.916Z,20.10
2019-06-01T23:25:40.625Z,20.10
2019-06-01T23:28:08.372Z,20.20
2019-06-01T23:30:36.098Z,20.10
2019-06-01T23:33:03.778Z,20.10
2019-06-01T23:35:32.693Z,20.00
2019-06-01T23:38:00.655Z,19.90
2019-06-01T23:40:28.899Z,19.90
2019-06-01T23:42:56.952Z,19.70
2019-06-01T23:45:26.634Z,19.60
2019-06-01T23:47:54.637Z,19.60
2019-06-01T23:50:23.085Z,19.60
2019-06-01T23:52:51.131Z,19.50
2019-06-01T23:55:19.218Z,19.40
2019-06-01T23:57:47.651Z,19.40
